sensor_id;sensor_type;location;lat;lon;timestamp;temperature;humidity
28823;DHT22;15961;54.678;9.110;2022-07-29T00:01:47;9.60;99.90
28823;DHT22;15961;54.678;9.110;2022-07-29T00:04:13;9.70;99.90
28823;DHT22;15961;54.678;9.110;2022-07-29T00:06:40;9.70;99.90
28823;DHT22;15961;54.678;9.110;2022-07-29T00:09:05;9.70;99.90
28823;DHT22;15961;54.678;9.110;2022-07-29T00:11:31;9.80;99.90
28823;DHT22;15961;54.678;9.110;2022-07-29T00:13:57;9.80;99.90
28823;DHT22;15961;54.678;9.110;2022-07-29T00:16:22;9.70;99.90
28823;DHT22;15961;54.678;9.110;2022-07-29T00:18:48;9.80;99.90
28823;DHT22;15961;54.678;9.110;2022-07-29T00:21:14;9.70;99.90
28823;DHT22;15961;54.678;9.110;2022-07-29T00:23:39;9.70;99.90
28823;DHT22;15961;54.678;9.110;2022-07-29T00:26:05;9.70;99.90
28823;DHT22;15961;54.678;9.110;2022-07-29T00:28:30;9.70;99.90
28823;DHT22;15961;54.678;9.110;2022-07-29T00:30:56;9.60;99.90
28823;DHT22;15961;54.678;9.110;2022-07-29T00:33:22;9.60;99.90
28823;DHT22;15961;54.678;9.110;2022-07-29T00:35:48;9.60;99.90
28823;DHT22;15961;54.678;9.110;2022-07-29T00:38:17;9.60;99.90
28823;DHT22;15961;54.678;9.110;2022-07-29T00:40:44;9.50;99.90
28823;DHT22;15961;54.678;9.110;2022-07-29T00:43:10;9.50;99.90
28823;DHT22;15961;54.678;9.110;2022-07-29T00:45:35;9.50;99.90
28823;DHT22;15961;54.678;9.110;2022-07-29T00:48:02;9.50;99.90
28823;DHT22;15961;54.678;9.110;2022-07-29T00:50:28;9.40;99.90
28823;DHT22;15961;54.678;9.110;2022-07-29T00:52:54;9.40;99.90
28823;DHT22;15961;54.678;9.110;2022-07-29T00:55:20;9.40;99.90
28823;DHT22;15961;54.678;9.110;2022-07-29T00:57:45;9.40;99.90
28823;DHT22;15961;54.678;9.110;2022-07-29T01:00:18;9.40;99.90
28823;DHT22;15961;54.678;9.110;2022-07-29T01:02:45;9.40;99.90
28823;DHT22;15961;54.678;9.110;2022-07-29T01:05:12;9.50;99.90
28823;DHT22;15961;54.678;9.110;2022-07-29T01:07:39;9.50;99.90
28823;DHT22;15961;54.678;9.110;2022-07-29T01:10:06;9.50;99.90
28823;DHT22;15961;54.678;9.110;2022-07-29T01:12:34;9.40;99.90
28823;DHT22;15961;54.678;9.110;2022-07-29T01:15:02;9.50;99.90
28823;DHT22;15961;54.678;9.110;2022-07-29T01:25:46;9.40;99.90
28823;DHT22;15961;54.678;9.110;2022-07-29T01:31:02;9.30;99.90
28823;DHT22;15961;54.678;9.110;2022-07-29T01:33:31;9.20;99.90
28823;DHT22;15961;54.678;9.110;2022-07-29T01:36:40;9.20;99.90
28823;DHT22;15961;54.678;9.110;2022-07-29T01:39:16;9.10;99.90
28823;DHT22;15961;54.678;9.110;2022-07-29T01:41:57;9.00;99.90
28823;DHT22;15961;54.678;9.110;2022-07-29T01:44:31;9.00;99.90
28823;DHT22;15961;54.678;9.110;2022-07-29T01:47:01;8.90;99.90
28823;DHT22;15961;54.678;9.110;2022-07-29T01:49:29;8.90;99.90
28823;DHT22;15961;54.678;9.110;2022-07-29T01:51:59;8.80;99.90
28823;DHT22;15961;54.678;9.110;2022-07-29T01:54:42;8.80;99.90
28823;DHT22;15961;54.678;9.110;2022-07-29T01:57:11;8.70;99.90
28823;DHT22;15961;54.678;9.110;2022-07-29T01:59:38;8.70;99.90
28823;DHT22;15961;54.678;9.110;2022-07-29T02:02:06;8.60;99.90
28823;DHT22;15961;54.678;9.110;2022-07-29T02:04:36;8.60;99.90
28823;DHT22;15961;54.678;9.110;2022-07-29T02:07:05;8.60;99.90
28823;DHT22;15961;54.678;9.110;2022-07-29T02:09:34;8.50;99.90
28823;DHT22;15961;54.678;9.110;2022-07-29T02:12:02;8.50;99.90
28823;DHT22;15961;54.678;9.110;2022-07-29T02:14:31;8.40;99.90
28823;DHT22;15961;54.678;9.110;2022-07-29T02:17:00;8.40;99.90
28823;DHT22;15961;54.678;9.110;2022-07-29T02:19:27;8.40;99.90
28823;DHT22;15961;54.678;9.110;2022-07-29T02:21:56;8.40;99.90
28823;DHT22;15961;54.678;9.110;2022-07-29T02:24:23;8.40;99.90
28823;DHT22;15961;54.678;9.110;2022-07-29T02:26:51;8.40;99.90
28823;DHT22;15961;54.678;9.110;2022-07-29T02:29:21;8.30;99.90
28823;DHT22;15961;54.678;9.110;2022-07-29T02:31:48;8.30;99.90
28823;DHT22;15961;54.678;9.110;2022-07-29T02:34:15;8.30;99.90
28823;DHT22;15961;54.678;9.110;2022-07-29T02:36:43;8.20;99.90
28823;DHT22;15961;54.678;9.110;2022-07-29T02:39:11;8.20;99.90
28823;DHT22;15961;54.678;9.110;2022-07-29T02:41:46;8.20;99.90
28823;DHT22;15961;54.678;9.110;2022-07-29T02:44:20;8.10;99.90
28823;DHT22;15961;54.678;9.110;2022-07-29T02:46:48;8.10;99.90
28823;DHT22;15961;54.678;9.110;2022-07-29T02:51:43;8.10;99.90
28823;DHT22;15961;54.678;9.110;2022-07-29T02:54:14;8.00;99.90
28823;DHT22;15961;54.678;9.110;2022-07-29T02:56:45;8.00;99.90
28823;DHT22;15961;54.678;9.110;2022-07-29T02:59:13;7.90;99.90
28823;DHT22;15961;54.678;9.110;2022-07-29T03:01:42;7.90;99.90
28823;DHT22;15961;54.678;9.110;2022-07-29T03:04:09;7.90;99.90
28823;DHT22;15961;54.678;9.110;2022-07-29T03:06:37;7.90;99.90
28823;DHT22;15961;54.678;9.110;2022-07-29T03:09:03;7.90;99.90
28823;DHT22;15961;54.678;9.110;2022-07-29T03:11:30;7.80;99.90
28823;DHT22;15961;54.678;9.110;2022-07-29T03:13:56;7.80;99.90
28823;DHT22;15961;54.678;9.110;2022-07-29T03:16:22;7.80;99.90
28823;DHT22;15961;54.678;9.110;2022-07-29T03:18:49;7.80;99.90
28823;DHT22;15961;54.678;9.110;2022-07-29T03:21:15;7.80;99.90
28823;DHT22;15961;54.678;9.110;2022-07-29T03:23:44;7.90;99.90
28823;DHT22;15961;54.678;9.110;2022-07-29T03:26:11;7.90;99.90
28823;DHT22;15961;54.678;9.110;2022-07-29T03:28:37;7.80;99.90
28823;DHT22;15961;54.678;9.110;2022-07-29T03:31:02;7.90;99.90
28823;DHT22;15961;54.678;9.110;2022-07-29T03:33:28;7.90;99.90
28823;DHT22;15961;54.678;9.110;2022-07-29T03:35:56;8.00;99.90
28823;DHT22;15961;54.678;9.110;2022-07-29T03:38:24;8.00;99.90
28823;DHT22;15961;54.678;9.110;2022-07-29T03:40:54;8.00;99.90
28823;DHT22;15961;54.678;9.110;2022-07-29T03:43:22;8.00;99.90
28823;DHT22;15961;54.678;9.110;2022-07-29T03:45:52;8.00;99.90
28823;DHT22;15961;54.678;9.110;2022-07-29T03:48:21;8.10;99.90
28823;DHT22;15961;54.678;9.110;2022-07-29T03:50:47;8.10;99.90
28823;DHT22;15961;54.678;9.110;2022-07-29T03:53:13;8.10;99.90
28823;DHT22;15961;54.678;9.110;2022-07-29T03:55:46;8.20;99.90
28823;DHT22;15961;54.678;9.110;2022-07-29T03:58:14;8.20;99.90
28823;DHT22;15961;54.678;9.110;2022-07-29T04:00:42;8.30;99.90
28823;DHT22;15961;54.678;9.110;2022-07-29T04:03:09;8.30;99.90
28823;DHT22;15961;54.678;9.110;2022-07-29T04:05:34;8.30;99.90
28823;DHT22;15961;54.678;9.110;2022-07-29T04:08:00;8.40;99.90
28823;DHT22;15961;54.678;9.110;2022-07-29T04:10:26;8.50;99.90
28823;DHT22;15961;54.678;9.110;2022-07-29T04:12:51;8.50;99.90
28823;DHT22;15961;54.678;9.110;2022-07-29T04:15:18;8.60;99.90
28823;DHT22;15961;54.678;9.110;2022-07-29T04:17:43;8.70;99.90
28823;DHT22;15961;54.678;9.110;2022-07-29T04:20:10;8.70;99.90
28823;DHT22;15961;54.678;9.110;2022-07-29T04:22:38;8.80;99.90
28823;DHT22;15961;54.678;9.110;2022-07-29T04:25:04;8.90;99.90
28823;DHT22;15961;54.678;9.110;2022-07-29T04:27:30;8.90;99.90
28823;DHT22;15961;54.678;9.110;2022-07-29T04:29:55;9.00;99.90
28823;DHT22;15961;54.678;9.110;2022-07-29T04:32:21;9.10;99.90
28823;DHT22;15961;54.678;9.110;2022-07-29T04:34:47;9.10;99.90
28823;DHT22;15961;54.678;9.110;2022-07-29T04:37:12;9.20;99.90
28823;DHT22;15961;54.678;9.110;2022-07-29T04:39:38;9.20;99.90
28823;DHT22;15961;54.678;9.110;2022-07-29T04:42:04;9.30;99.90
28823;DHT22;15961;54.678;9.110;2022-07-29T04:44:29;9.30;99.90
28823;DHT22;15961;54.678;9.110;2022-07-29T04:46:55;9.40;99.90
28823;DHT22;15961;54.678;9.110;2022-07-29T04:49:21;9.40;99.90
28823;DHT22;15961;54.678;9.110;2022-07-29T04:51:46;9.50;99.90
28823;DHT22;15961;54.678;9.110;2022-07-29T04:54:12;9.50;99.90
28823;DHT22;15961;54.678;9.110;2022-07-29T04:56:38;9.60;99.90
28823;DHT22;15961;54.678;9.110;2022-07-29T04:59:03;9.70;99.90
28823;DHT22;15961;54.678;9.110;2022-07-29T05:01:29;9.80;99.90
28823;DHT22;15961;54.678;9.110;2022-07-29T05:03:54;9.90;99.90
28823;DHT22;15961;54.678;9.110;2022-07-29T05:06:20;10.00;99.90
28823;DHT22;15961;54.678;9.110;2022-07-29T05:08:45;10.10;99.90
28823;DHT22;15961;54.678;9.110;2022-07-29T05:11:11;10.20;99.90
28823;DHT22;15961;54.678;9.110;2022-07-29T05:13:37;10.40;99.90
28823;DHT22;15961;54.678;9.110;2022-07-29T05:16:02;10.60;99.90
28823;DHT22;15961;54.678;9.110;2022-07-29T05:18:28;10.60;99.90
28823;DHT22;15961;54.678;9.110;2022-07-29T05:20:53;10.80;99.90
28823;DHT22;15961;54.678;9.110;2022-07-29T05:23:19;10.90;99.90
28823;DHT22;15961;54.678;9.110;2022-07-29T05:25:44;11.10;99.90
28823;DHT22;15961;54.678;9.110;2022-07-29T05:28:11;11.20;99.90
28823;DHT22;15961;54.678;9.110;2022-07-29T05:30:37;11.40;99.90
28823;DHT22;15961;54.678;9.110;2022-07-29T05:33:02;11.50;99.90
28823;DHT22;15961;54.678;9.110;2022-07-29T05:35:28;11.60;99.90
28823;DHT22;15961;54.678;9.110;2022-07-29T05:37:53;11.80;99.90
28823;DHT22;15961;54.678;9.110;2022-07-29T05:40:19;12.00;99.90
28823;DHT22;15961;54.678;9.110;2022-07-29T05:42:45;12.10;99.90
28823;DHT22;15961;54.678;9.110;2022-07-29T05:45:11;12.20;99.90
28823;DHT22;15961;54.678;9.110;2022-07-29T05:47:36;12.50;99.90
28823;DHT22;15961;54.678;9.110;2022-07-29T05:50:02;12.50;99.90
28823;DHT22;15961;54.678;9.110;2022-07-29T05:52:29;12.70;99.90
28823;DHT22;15961;54.678;9.110;2022-07-29T05:54:54;12.90;99.90
28823;DHT22;15961;54.678;9.110;2022-07-29T05:57:24;13.10;99.90
28823;DHT22;15961;54.678;9.110;2022-07-29T05:59:50;13.30;99.90
28823;DHT22;15961;54.678;9.110;2022-07-29T06:02:17;13.40;99.90
28823;DHT22;15961;54.678;9.110;2022-07-29T06:04:43;13.60;99.90
28823;DHT22;15961;54.678;9.110;2022-07-29T06:07:08;13.70;99.90
28823;DHT22;15961;54.678;9.110;2022-07-29T06:09:34;13.90;99.90
28823;DHT22;15961;54.678;9.110;2022-07-29T06:12:00;14.00;99.90
28823;DHT22;15961;54.678;9.110;2022-07-29T06:14:26;14.20;99.90
28823;DHT22;15961;54.678;9.110;2022-07-29T06:16:53;14.20;99.90
28823;DHT22;15961;54.678;9.110;2022-07-29T06:19:19;14.30;99.90
28823;DHT22;15961;54.678;9.110;2022-07-29T06:21:45;14.50;99.90
28823;DHT22;15961;54.678;9.110;2022-07-29T06:24:11;14.70;99.90
28823;DHT22;15961;54.678;9.110;2022-07-29T06:26:38;14.80;99.90
28823;DHT22;15961;54.678;9.110;2022-07-29T06:29:03;14.90;99.90
28823;DHT22;15961;54.678;9.110;2022-07-29T06:31:29;14.90;99.90
28823;DHT22;15961;54.678;9.110;2022-07-29T06:33:55;15.10;99.90
28823;DHT22;15961;54.678;9.110;2022-07-29T06:36:20;15.20;99.90
28823;DHT22;15961;54.678;9.110;2022-07-29T06:38:46;15.30;99.90
28823;DHT22;15961;54.678;9.110;2022-07-29T06:41:11;15.40;99.90
28823;DHT22;15961;54.678;9.110;2022-07-29T06:43:43;15.60;99.90
28823;DHT22;15961;54.678;9.110;2022-07-29T06:46:15;15.80;99.90
28823;DHT22;15961;54.678;9.110;2022-07-29T06:48:42;16.00;99.90
28823;DHT22;15961;54.678;9.110;2022-07-29T06:51:08;16.20;99.90
28823;DHT22;15961;54.678;9.110;2022-07-29T06:53:34;16.50;99.90
28823;DHT22;15961;54.678;9.110;2022-07-29T06:56:02;16.70;99.90
28823;DHT22;15961;54.678;9.110;2022-07-29T06:58:28;16.80;99.90
28823;DHT22;15961;54.678;9.110;2022-07-29T07:00:55;16.90;99.90
28823;DHT22;15961;54.678;9.110;2022-07-29T07:03:21;17.10;99.90
28823;DHT22;15961;54.678;9.110;2022-07-29T07:05:48;17.30;99.90
28823;DHT22;15961;54.678;9.110;2022-07-29T07:08:14;17.50;99.90
28823;DHT22;15961;54.678;9.110;2022-07-29T07:10:41;17.80;99.90
28823;DHT22;15961;54.678;9.110;2022-07-29T07:13:07;17.80;99.90
28823;DHT22;15961;54.678;9.110;2022-07-29T07:15:33;18.00;99.90
28823;DHT22;15961;54.678;9.110;2022-07-29T07:17:58;18.20;99.90
28823;DHT22;15961;54.678;9.110;2022-07-29T07:20:25;18.30;99.90
28823;DHT22;15961;54.678;9.110;2022-07-29T07:22:50;18.40;99.90
28823;DHT22;15961;54.678;9.110;2022-07-29T07:25:16;18.60;99.90
28823;DHT22;15961;54.678;9.110;2022-07-29T07:27:46;18.70;99.90
28823;DHT22;15961;54.678;9.110;2022-07-29T07:30:11;18.80;99.90
28823;DHT22;15961;54.678;9.110;2022-07-29T07:32:37;18.90;99.90
28823;DHT22;15961;54.678;9.110;2022-07-29T07:35:06;19.10;99.90
28823;DHT22;15961;54.678;9.110;2022-07-29T07:37:32;19.20;99.90
28823;DHT22;15961;54.678;9.110;2022-07-29T07:39:58;19.40;99.90
28823;DHT22;15961;54.678;9.110;2022-07-29T07:42:24;19.60;99.90
28823;DHT22;15961;54.678;9.110;2022-07-29T07:44:49;19.60;99.90
28823;DHT22;15961;54.678;9.110;2022-07-29T07:47:15;19.80;99.90
28823;DHT22;15961;54.678;9.110;2022-07-29T07:49:49;19.90;99.90
28823;DHT22;15961;54.678;9.110;2022-07-29T07:52:16;20.10;99.90
28823;DHT22;15961;54.678;9.110;2022-07-29T07:54:42;20.20;99.90
28823;DHT22;15961;54.678;9.110;2022-07-29T07:57:09;20.30;99.90
28823;DHT22;15961;54.678;9.110;2022-07-29T07:59:35;20.40;99.90
28823;DHT22;15961;54.678;9.110;2022-07-29T08:02:00;20.60;99.90
28823;DHT22;15961;54.678;9.110;2022-07-29T08:04:26;20.70;99.90
28823;DHT22;15961;54.678;9.110;2022-07-29T08:06:52;21.00;99.90
28823;DHT22;15961;54.678;9.110;2022-07-29T08:09:20;21.20;99.90
28823;DHT22;15961;54.678;9.110;2022-07-29T08:11:45;21.40;99.90
28823;DHT22;15961;54.678;9.110;2022-07-29T08:14:11;21.70;99.90
28823;DHT22;15961;54.678;9.110;2022-07-29T08:16:39;21.80;99.90
28823;DHT22;15961;54.678;9.110;2022-07-29T08:19:05;21.90;99.90
28823;DHT22;15961;54.678;9.110;2022-07-29T08:21:31;21.90;99.90
28823;DHT22;15961;54.678;9.110;2022-07-29T08:23:56;22.00;99.90
28823;DHT22;15961;54.678;9.110;2022-07-29T08:26:42;22.10;99.90
28823;DHT22;15961;54.678;9.110;2022-07-29T08:29:10;22.30;99.90
28823;DHT22;15961;54.678;9.110;2022-07-29T08:31:37;22.40;99.90
28823;DHT22;15961;54.678;9.110;2022-07-29T08:34:03;22.50;99.90
28823;DHT22;15961;54.678;9.110;2022-07-29T08:36:29;22.80;99.90
28823;DHT22;15961;54.678;9.110;2022-07-29T08:38:55;23.10;99.90
28823;DHT22;15961;54.678;9.110;2022-07-29T08:41:21;23.30;99.90
28823;DHT22;15961;54.678;9.110;2022-07-29T08:43:48;23.40;99.90
28823;DHT22;15961;54.678;9.110;2022-07-29T08:46:15;23.50;99.90
28823;DHT22;15961;54.678;9.110;2022-07-29T08:48:41;23.50;99.90
28823;DHT22;15961;54.678;9.110;2022-07-29T08:51:07;23.40;99.90
28823;DHT22;15961;54.678;9.110;2022-07-29T08:53:34;23.30;99.90
28823;DHT22;15961;54.678;9.110;2022-07-29T08:56:01;23.40;99.90
28823;DHT22;15961;54.678;9.110;2022-07-29T08:58:31;23.50;99.90
28823;DHT22;15961;54.678;9.110;2022-07-29T09:01:01;23.70;99.90
28823;DHT22;15961;54.678;9.110;2022-07-29T09:03:30;23.90;99.90
28823;DHT22;15961;54.678;9.110;2022-07-29T09:05:56;24.10;99.90
28823;DHT22;15961;54.678;9.110;2022-07-29T09:08:23;24.30;99.90
28823;DHT22;15961;54.678;9.110;2022-07-29T09:10:48;24.40;99.90
28823;DHT22;15961;54.678;9.110;2022-07-29T09:13:14;24.60;99.90
28823;DHT22;15961;54.678;9.110;2022-07-29T09:15:40;24.60;99.90
28823;DHT22;15961;54.678;9.110;2022-07-29T09:18:05;24.80;99.90
28823;DHT22;15961;54.678;9.110;2022-07-29T09:20:31;24.80;99.90
28823;DHT22;15961;54.678;9.110;2022-07-29T09:23:15;24.80;99.90
28823;DHT22;15961;54.678;9.110;2022-07-29T09:25:41;24.90;99.90
28823;DHT22;15961;54.678;9.110;2022-07-29T09:28:15;24.90;99.90
28823;DHT22;15961;54.678;9.110;2022-07-29T09:30:58;25.10;99.90
28823;DHT22;15961;54.678;9.110;2022-07-29T09:33:32;25.20;99.90
28823;DHT22;15961;54.678;9.110;2022-07-29T09:36:04;25.00;99.90
28823;DHT22;15961;54.678;9.110;2022-07-29T09:38:31;24.90;99.90
28823;DHT22;15961;54.678;9.110;2022-07-29T09:40:59;24.60;99.90
28823;DHT22;15961;54.678;9.110;2022-07-29T09:43:25;24.50;99.90
28823;DHT22;15961;54.678;9.110;2022-07-29T09:45:50;24.60;99.90
28823;DHT22;15961;54.678;9.110;2022-07-29T09:48:22;24.80;99.90
28823;DHT22;15961;54.678;9.110;2022-07-29T09:50:48;24.90;99.90
28823;DHT22;15961;54.678;9.110;2022-07-29T09:53:31;25.00;99.90
28823;DHT22;15961;54.678;9.110;2022-07-29T09:55:58;25.30;99.90
28823;DHT22;15961;54.678;9.110;2022-07-29T09:58:24;25.40;99.90
28823;DHT22;15961;54.678;9.110;2022-07-29T10:00:51;25.60;99.90
28823;DHT22;15961;54.678;9.110;2022-07-29T10:03:17;25.80;99.90
28823;DHT22;15961;54.678;9.110;2022-07-29T10:05:44;25.90;99.90
28823;DHT22;15961;54.678;9.110;2022-07-29T10:08:11;26.10;99.90
28823;DHT22;15961;54.678;9.110;2022-07-29T10:10:42;26.00;99.90
28823;DHT22;15961;54.678;9.110;2022-07-29T10:13:13;26.00;99.90
28823;DHT22;15961;54.678;9.110;2022-07-29T10:15:41;26.00;99.90
28823;DHT22;15961;54.678;9.110;2022-07-29T10:18:09;26.00;99.90
28823;DHT22;15961;54.678;9.110;2022-07-29T10:20:36;26.20;99.90
28823;DHT22;15961;54.678;9.110;2022-07-29T10:23:02;26.50;99.90
28823;DHT22;15961;54.678;9.110;2022-07-29T10:25:28;26.90;99.90
28823;DHT22;15961;54.678;9.110;2022-07-29T10:27:54;27.10;99.90
28823;DHT22;15961;54.678;9.110;2022-07-29T10:30:21;27.00;99.90
28823;DHT22;15961;54.678;9.110;2022-07-29T10:35:53;27.40;99.90
28823;DHT22;15961;54.678;9.110;2022-07-29T10:41:33;27.80;99.90
28823;DHT22;15961;54.678;9.110;2022-07-29T10:46:40;27.70;99.90
28823;DHT22;15961;54.678;9.110;2022-07-29T10:49:13;28.00;99.90
28823;DHT22;15961;54.678;9.110;2022-07-29T10:52:00;28.20;99.90
28823;DHT22;15961;54.678;9.110;2022-07-29T10:57:22;28.70;99.90
28823;DHT22;15961;54.678;9.110;2022-07-29T11:05:14;28.90;99.90
28823;DHT22;15961;54.678;9.110;2022-07-29T11:10:38;29.20;99.90
28823;DHT22;15961;54.678;9.110;2022-07-29T11:13:04;29.30;99.90
28823;DHT22;15961;54.678;9.110;2022-07-29T11:15:53;29.20;99.90
28823;DHT22;15961;54.678;9.110;2022-07-29T11:18:19;29.40;99.90
28823;DHT22;15961;54.678;9.110;2022-07-29T11:20:46;29.70;99.90
28823;DHT22;15961;54.678;9.110;2022-07-29T11:23:34;29.70;99.90
28823;DHT22;15961;54.678;9.110;2022-07-29T11:29:13;29.10;99.90
28823;DHT22;15961;54.678;9.110;2022-07-29T11:31:47;28.70;99.20
28823;DHT22;15961;54.678;9.110;2022-07-29T11:34:27;27.80;99.90
28823;DHT22;15961;54.678;9.110;2022-07-29T11:39:33;27.10;99.90
28823;DHT22;15961;54.678;9.110;2022-07-29T11:50:11;27.30;99.90
28823;DHT22;15961;54.678;9.110;2022-07-29T11:52:39;27.20;99.90
28823;DHT22;15961;54.678;9.110;2022-07-29T11:55:11;27.00;99.90
28823;DHT22;15961;54.678;9.110;2022-07-29T11:57:48;26.90;99.90
28823;DHT22;15961;54.678;9.110;2022-07-29T12:02:47;27.40;99.90
28823;DHT22;15961;54.678;9.110;2022-07-29T12:05:13;27.50;99.90
28823;DHT22;15961;54.678;9.110;2022-07-29T12:07:39;27.70;99.90
28823;DHT22;15961;54.678;9.110;2022-07-29T12:10:06;28.10;99.90
28823;DHT22;15961;54.678;9.110;2022-07-29T12:12:32;28.80;99.90
28823;DHT22;15961;54.678;9.110;2022-07-29T12:14:58;29.40;99.90
28823;DHT22;15961;54.678;9.110;2022-07-29T12:17:30;30.00;99.90
28823;DHT22;15961;54.678;9.110;2022-07-29T12:19:57;29.70;99.40
28823;DHT22;15961;54.678;9.110;2022-07-29T12:22:27;29.40;99.90
28823;DHT22;15961;54.678;9.110;2022-07-29T12:24:54;29.80;96.80
28823;DHT22;15961;54.678;9.110;2022-07-29T12:27:21;30.20;96.80
28823;DHT22;15961;54.678;9.110;2022-07-29T12:30:07;30.40;95.40
28823;DHT22;15961;54.678;9.110;2022-07-29T12:32:42;30.80;97.90
28823;DHT22;15961;54.678;9.110;2022-07-29T12:35:17;30.80;97.00
28823;DHT22;15961;54.678;9.110;2022-07-29T12:37:44;30.90;97.60
28823;DHT22;15961;54.678;9.110;2022-07-29T12:40:12;30.80;98.60
28823;DHT22;15961;54.678;9.110;2022-07-29T12:42:39;30.90;96.90
28823;DHT22;15961;54.678;9.110;2022-07-29T12:45:05;31.10;96.70
28823;DHT22;15961;54.678;9.110;2022-07-29T12:47:32;30.90;96.30
28823;DHT22;15961;54.678;9.110;2022-07-29T12:50:12;30.50;94.70
28823;DHT22;15961;54.678;9.110;2022-07-29T12:52:39;30.00;96.40
28823;DHT22;15961;54.678;9.110;2022-07-29T12:55:05;29.30;96.90
28823;DHT22;15961;54.678;9.110;2022-07-29T12:57:31;28.60;96.90
28823;DHT22;15961;54.678;9.110;2022-07-29T13:00:07;28.00;97.40
28823;DHT22;15961;54.678;9.110;2022-07-29T13:02:34;27.50;97.80
28823;DHT22;15961;54.678;9.110;2022-07-29T13:05:00;27.10;99.10
28823;DHT22;15961;54.678;9.110;2022-07-29T13:07:28;27.00;98.90
28823;DHT22;15961;54.678;9.110;2022-07-29T13:10:09;27.10;99.20
28823;DHT22;15961;54.678;9.110;2022-07-29T13:12:35;27.10;98.90
28823;DHT22;15961;54.678;9.110;2022-07-29T13:15:00;27.40;99.80
28823;DHT22;15961;54.678;9.110;2022-07-29T13:17:40;27.70;99.90
28823;DHT22;15961;54.678;9.110;2022-07-29T13:20:09;27.90;98.30
28823;DHT22;15961;54.678;9.110;2022-07-29T13:22:37;27.80;99.10
28823;DHT22;15961;54.678;9.110;2022-07-29T13:25:03;27.60;98.50
28823;DHT22;15961;54.678;9.110;2022-07-29T13:27:33;27.40;99.60
28823;DHT22;15961;54.678;9.110;2022-07-29T13:30:00;27.30;99.50
28823;DHT22;15961;54.678;9.110;2022-07-29T13:32:29;27.30;98.40
28823;DHT22;15961;54.678;9.110;2022-07-29T13:35:00;27.60;99.20
28823;DHT22;15961;54.678;9.110;2022-07-29T13:37:27;27.80;99.50
28823;DHT22;15961;54.678;9.110;2022-07-29T13:39:55;27.90;99.90
28823;DHT22;15961;54.678;9.110;2022-07-29T13:42:21;27.60;98.50
28823;DHT22;15961;54.678;9.110;2022-07-29T13:44:47;27.20;98.50
28823;DHT22;15961;54.678;9.110;2022-07-29T13:47:14;27.00;99.60
28823;DHT22;15961;54.678;9.110;2022-07-29T13:49:41;26.70;99.40
28823;DHT22;15961;54.678;9.110;2022-07-29T13:52:06;26.30;99.10
28823;DHT22;15961;54.678;9.110;2022-07-29T13:54:32;26.10;99.90
28823;DHT22;15961;54.678;9.110;2022-07-29T13:56:58;25.80;99.90
28823;DHT22;15961;54.678;9.110;2022-07-29T13:59:23;25.60;99.90
28823;DHT22;15961;54.678;9.110;2022-07-29T14:01:49;25.30;99.70
28823;DHT22;15961;54.678;9.110;2022-07-29T14:04:14;25.40;99.90
28823;DHT22;15961;54.678;9.110;2022-07-29T14:06:40;25.60;99.90
28823;DHT22;15961;54.678;9.110;2022-07-29T14:09:06;25.80;99.90
28823;DHT22;15961;54.678;9.110;2022-07-29T14:11:34;26.40;99.90
28823;DHT22;15961;54.678;9.110;2022-07-29T14:13:59;27.10;99.90
28823;DHT22;15961;54.678;9.110;2022-07-29T14:16:25;27.60;99.90
28823;DHT22;15961;54.678;9.110;2022-07-29T14:18:50;28.00;99.80
28823;DHT22;15961;54.678;9.110;2022-07-29T14:21:16;28.20;99.90
28823;DHT22;15961;54.678;9.110;2022-07-29T14:23:42;28.10;98.50
28823;DHT22;15961;54.678;9.110;2022-07-29T14:26:07;27.90;98.20
28823;DHT22;15961;54.678;9.110;2022-07-29T14:28:33;27.70;96.50
28823;DHT22;15961;54.678;9.110;2022-07-29T14:30:59;27.60;99.20
28823;DHT22;15961;54.678;9.110;2022-07-29T14:33:24;27.80;98.50
28823;DHT22;15961;54.678;9.110;2022-07-29T14:35:50;27.90;97.00
28823;DHT22;15961;54.678;9.110;2022-07-29T14:38:15;27.90;99.30
28823;DHT22;15961;54.678;9.110;2022-07-29T14:40:41;28.10;98.10
28823;DHT22;15961;54.678;9.110;2022-07-29T14:43:07;28.40;97.90
28823;DHT22;15961;54.678;9.110;2022-07-29T14:45:32;28.40;98.30
28823;DHT22;15961;54.678;9.110;2022-07-29T14:47:58;28.30;98.20
28823;DHT22;15961;54.678;9.110;2022-07-29T14:50:25;28.30;97.40
28823;DHT22;15961;54.678;9.110;2022-07-29T14:52:51;28.20;97.00
28823;DHT22;15961;54.678;9.110;2022-07-29T14:55:17;27.90;99.40
28823;DHT22;15961;54.678;9.110;2022-07-29T14:57:43;27.70;99.00
28823;DHT22;15961;54.678;9.110;2022-07-29T15:00:09;27.60;98.90
28823;DHT22;15961;54.678;9.110;2022-07-29T15:02:35;27.70;99.50
28823;DHT22;15961;54.678;9.110;2022-07-29T15:05:01;27.70;98.40
28823;DHT22;15961;54.678;9.110;2022-07-29T15:07:27;27.60;98.40
28823;DHT22;15961;54.678;9.110;2022-07-29T15:09:53;27.50;99.90
28823;DHT22;15961;54.678;9.110;2022-07-29T15:12:18;27.60;99.80
28823;DHT22;15961;54.678;9.110;2022-07-29T15:14:44;27.40;98.80
28823;DHT22;15961;54.678;9.110;2022-07-29T15:17:10;27.60;98.70
28823;DHT22;15961;54.678;9.110;2022-07-29T15:19:35;27.70;98.50
28823;DHT22;15961;54.678;9.110;2022-07-29T15:22:01;27.90;98.70
28823;DHT22;15961;54.678;9.110;2022-07-29T15:24:27;27.90;98.80
28823;DHT22;15961;54.678;9.110;2022-07-29T15:26:53;27.80;98.00
28823;DHT22;15961;54.678;9.110;2022-07-29T15:29:19;27.60;98.60
28823;DHT22;15961;54.678;9.110;2022-07-29T15:31:45;27.30;97.90
28823;DHT22;15961;54.678;9.110;2022-07-29T15:34:10;26.80;97.40
28823;DHT22;15961;54.678;9.110;2022-07-29T15:36:36;26.80;99.90
28823;DHT22;15961;54.678;9.110;2022-07-29T15:39:01;26.60;99.90
28823;DHT22;15961;54.678;9.110;2022-07-29T15:41:27;26.40;99.90
28823;DHT22;15961;54.678;9.110;2022-07-29T15:43:53;26.40;99.60
28823;DHT22;15961;54.678;9.110;2022-07-29T15:46:19;26.30;99.50
28823;DHT22;15961;54.678;9.110;2022-07-29T15:49:04;26.10;98.20
28823;DHT22;15961;54.678;9.110;2022-07-29T15:51:31;26.20;99.40
28823;DHT22;15961;54.678;9.110;2022-07-29T15:53:56;26.40;98.40
28823;DHT22;15961;54.678;9.110;2022-07-29T15:56:23;26.70;98.50
28823;DHT22;15961;54.678;9.110;2022-07-29T15:58:49;26.80;97.60
28823;DHT22;15961;54.678;9.110;2022-07-29T16:01:14;26.70;98.00
28823;DHT22;15961;54.678;9.110;2022-07-29T16:03:40;27.00;97.70
28823;DHT22;15961;54.678;9.110;2022-07-29T16:06:06;27.20;97.30
28823;DHT22;15961;54.678;9.110;2022-07-29T16:08:31;27.60;96.90
28823;DHT22;15961;54.678;9.110;2022-07-29T16:10:57;27.80;96.50
28823;DHT22;15961;54.678;9.110;2022-07-29T16:13:23;28.10;97.20
28823;DHT22;15961;54.678;9.110;2022-07-29T16:15:48;28.60;97.10
28823;DHT22;15961;54.678;9.110;2022-07-29T16:18:14;28.90;93.90
28823;DHT22;15961;54.678;9.110;2022-07-29T16:20:40;29.50;93.70
28823;DHT22;15961;54.678;9.110;2022-07-29T16:23:06;29.80;94.10
28823;DHT22;15961;54.678;9.110;2022-07-29T16:25:34;29.50;91.30
28823;DHT22;15961;54.678;9.110;2022-07-29T16:28:00;29.70;91.90